createdAt,value
2023-03-06T00:00:24.712Z,66.93
2023-03-06T00:02:52.286Z,67.83
2023-03-06T00:05:19.598Z,66.22
2023-03-06T00:07:46.437Z,66.21
2023-03-06T00:10:18.422Z,67.30
2023-03-06T00:12:45.199Z,68.12
2023-03-06T00:15:13.917Z,66.45
2023-03-06T00:17:40.866Z,68.91
2023-03-06T00:20:08.469Z,69.42
2023-03-06T00:22:35.069Z,68.69
2023-03-06T00:25:01.704Z,70.23
2023-03-06T00:27:28.297Z,68.64
2023-03-06T00:29:59.397Z,68.67
2023-03-06T00:32:26.802Z,68.67
2023-03-06T00:34:55.055Z,67.42
2023-03-06T00:37:23.173Z,67.16
2023-03-06T00:39:49.947Z,67.77
2023-03-06T00:42:17.954Z,68.54
2023-03-06T00:44:44.590Z,68.56
2023-03-06T00:47:11.428Z,66.20
2023-03-06T00:49:38.644Z,66.22
2023-03-06T00:52:05.753Z,67.16
2023-03-06T00:54:32.253Z,67.69
2023-03-06T00:56:58.847Z,66.52
2023-03-06T00:59:25.545Z,66.99
2023-03-06T01:01:52.156Z,66.76
2023-03-06T01:04:19.048Z,67.62
2023-03-06T01:06:46.206Z,68.75
2023-03-06T01:09:12.741Z,67.86
2023-03-06T01:11:39.656Z,68.31
2023-03-06T01:14:06.193Z,68.59
2023-03-06T01:16:32.815Z,67.52
2023-03-06T01:18:59.643Z,67.36
2023-03-06T01:21:26.346Z,67.96
2023-03-06T01:23:52.851Z,67.75
2023-03-06T01:26:19.440Z,68.06
2023-03-06T01:28:46.002Z,67.97
2023-03-06T01:31:12.643Z,67.88
2023-03-06T01:33:39.186Z,68.09
2023-03-06T01:36:08.666Z,68.64
2023-03-06T01:38:36.137Z,68.24
2023-03-06T01:41:05.288Z,68.48
2023-03-06T01:43:34.794Z,68.55
2023-03-06T01:46:28.821Z,68.91
2023-03-06T01:48:56.845Z,69.24
2023-03-06T01:51:28.608Z,69.65
2023-03-06T01:53:57.122Z,69.90
2023-03-06T01:56:25.057Z,70.43
2023-03-06T01:58:52.045Z,71.45
2023-03-06T02:01:19.449Z,69.87
2023-03-06T02:03:47.468Z,69.90
2023-03-06T02:06:19.713Z,70.76
2023-03-06T02:08:49.494Z,70.04
2023-03-06T02:11:22.102Z,70.63
2023-03-06T02:13:50.731Z,71.17
2023-03-06T02:16:20.052Z,71.15
2023-03-06T02:18:47.363Z,71.05
2023-03-06T02:21:21.862Z,70.77
2023-03-06T02:24:00.109Z,70.70
2023-03-06T02:26:28.789Z,71.35
2023-03-06T02:28:57.563Z,71.57
2023-03-06T02:31:30.293Z,70.86
2023-03-06T02:34:28.594Z,70.86
2023-03-06T02:37:09.023Z,71.64
2023-03-06T02:39:41.554Z,71.70
2023-03-06T02:42:08.165Z,71.70
2023-03-06T02:44:36.187Z,71.45
2023-03-06T02:47:02.734Z,72.26
2023-03-06T02:49:29.268Z,71.73
2023-03-06T02:51:56.054Z,71.85
2023-03-06T02:54:22.626Z,72.57
2023-03-06T02:56:49.195Z,71.67
2023-03-06T02:59:15.809Z,71.61
2023-03-06T03:01:42.388Z,71.55
2023-03-06T03:04:09.311Z,71.34
2023-03-06T03:06:35.975Z,71.96
2023-03-06T03:09:02.444Z,72.99
2023-03-06T03:11:29.020Z,72.17
2023-03-06T03:13:56.854Z,72.72
2023-03-06T03:16:24.014Z,72.85
2023-03-06T03:18:52.814Z,72.67
2023-03-06T03:21:19.764Z,73.00
2023-03-06T03:23:46.484Z,72.79
2023-03-06T03:26:20.405Z,73.25
2023-03-06T03:28:47.142Z,74.27
2023-03-06T03:31:14.045Z,74.16
2023-03-06T03:33:41.358Z,73.73
2023-03-06T03:36:08.413Z,73.48
2023-03-06T03:38:35.579Z,73.92
2023-03-06T03:41:03.177Z,73.88
2023-03-06T03:43:30.048Z,73.89
2023-03-06T03:45:57.654Z,73.96
2023-03-06T03:48:25.244Z,74.73
2023-03-06T03:50:51.977Z,74.11
2023-03-06T03:53:18.609Z,75.74
2023-03-06T03:55:47.120Z,74.74
2023-03-06T03:58:13.648Z,74.68
2023-03-06T04:00:40.331Z,74.29
2023-03-06T04:03:06.895Z,74.55
2023-03-06T04:05:33.944Z,74.60
2023-03-06T04:08:03.463Z,75.05
2023-03-06T04:10:32.559Z,74.86
2023-03-06T04:12:59.069Z,74.84
2023-03-06T04:15:25.858Z,75.45
2023-03-06T04:17:52.610Z,76.25
2023-03-06T04:20:19.431Z,75.79
2023-03-06T04:22:46.064Z,75.45
2023-03-06T04:25:13.930Z,75.87
2023-03-06T04:27:40.804Z,76.17
2023-03-06T04:30:08.419Z,76.05
2023-03-06T04:32:35.477Z,76.39
2023-03-06T04:35:02.367Z,76.51
2023-03-06T04:37:29.129Z,76.19
2023-03-06T04:39:56.805Z,76.47
2023-03-06T04:42:23.698Z,76.81
2023-03-06T04:44:50.097Z,76.85
2023-03-06T04:47:19.047Z,76.75
2023-03-06T04:49:46.010Z,76.90
2023-03-06T04:52:12.515Z,77.36
2023-03-06T04:54:39.306Z,77.16
2023-03-06T04:57:05.867Z,77.71
2023-03-06T04:59:32.632Z,77.46
2023-03-06T05:01:59.260Z,77.34
2023-03-06T05:04:25.926Z,77.43
2023-03-06T05:06:52.671Z,77.91
2023-03-06T05:09:19.378Z,77.78
2023-03-06T05:11:46.146Z,78.08
2023-03-06T05:14:12.782Z,78.47
2023-03-06T05:16:39.537Z,78.08
2023-03-06T05:19:06.051Z,78.63
2023-03-06T05:21:32.705Z,78.84
2023-03-06T05:23:59.429Z,79.04
2023-03-06T05:26:26.034Z,79.90
2023-03-06T05:28:53.319Z,79.54
2023-03-06T05:31:19.933Z,79.87
2023-03-06T05:33:46.706Z,79.87
2023-03-06T05:36:13.454Z,80.33
2023-03-06T05:38:39.994Z,81.41
2023-03-06T05:41:06.516Z,80.22
2023-03-06T05:43:32.964Z,79.95
2023-03-06T05:46:05.324Z,80.07
2023-03-06T05:48:32.724Z,79.77
2023-03-06T05:51:00.768Z,79.57
2023-03-06T05:53:29.187Z,79.62
2023-03-06T05:56:06.025Z,79.23
2023-03-06T05:58:34.186Z,79.38
2023-03-06T06:01:07.695Z,80.03
2023-03-06T06:03:34.229Z,80.01
2023-03-06T06:06:04.414Z,79.80
2023-03-06T06:08:31.066Z,79.60
2023-03-06T06:10:57.684Z,79.42
2023-03-06T06:13:24.333Z,79.58
2023-03-06T06:15:50.924Z,79.47
2023-03-06T06:18:17.469Z,80.03
2023-03-06T06:20:44.268Z,81.04
2023-03-06T06:23:11.612Z,80.53
2023-03-06T06:25:38.892Z,80.39
2023-03-06T06:28:05.729Z,81.31
2023-03-06T06:30:33.419Z,80.94
2023-03-06T06:33:00.273Z,81.40
2023-03-06T06:35:27.108Z,81.33
2023-03-06T06:37:53.733Z,84.11
2023-03-06T06:40:21.502Z,82.85
2023-03-06T06:42:48.156Z,82.43
2023-03-06T06:45:14.849Z,82.80
2023-03-06T06:47:41.921Z,82.63
2023-03-06T06:50:13.180Z,83.52
2023-03-06T06:52:40.737Z,82.71
2023-03-06T06:55:08.688Z,83.03
2023-03-06T06:57:35.298Z,83.20
2023-03-06T07:00:02.169Z,84.27
2023-03-06T07:02:28.733Z,84.77
2023-03-06T07:05:05.086Z,83.37
2023-03-06T07:07:35.032Z,83.33
2023-03-06T07:10:01.695Z,83.08
2023-03-06T07:12:28.235Z,83.54
2023-03-06T07:14:54.897Z,84.13
2023-03-06T07:17:21.545Z,84.37
2023-03-06T07:19:48.562Z,84.55
2023-03-06T07:22:15.264Z,84.51
2023-03-06T07:24:42.271Z,84.39
2023-03-06T07:27:08.897Z,84.19
2023-03-06T07:29:35.602Z,83.58
2023-03-06T07:32:02.301Z,83.79
2023-03-06T07:34:29.026Z,83.75
2023-03-06T07:36:55.764Z,84.48
2023-03-06T07:39:22.468Z,84.49
2023-03-06T07:41:49.079Z,84.44
2023-03-06T07:44:15.774Z,84.97
2023-03-06T07:46:42.497Z,85.02
2023-03-06T07:49:09.261Z,85.06
2023-03-06T07:51:36.072Z,85.25
2023-03-06T07:54:02.809Z,85.31
2023-03-06T07:56:29.779Z,84.30
2023-03-06T07:58:57.179Z,85.41
2023-03-06T08:01:24.374Z,85.56
2023-03-06T08:03:51.612Z,85.56
2023-03-06T08:06:23.775Z,81.77
2023-03-06T08:08:51.470Z,85.11
2023-03-06T08:11:20.946Z,84.10
2023-03-06T08:13:48.855Z,82.50
2023-03-06T08:16:15.981Z,84.07
2023-03-06T08:18:45.061Z,82.94
2023-03-06T08:21:16.452Z,84.15
2023-03-06T08:23:44.050Z,82.44
2023-03-06T08:26:17.404Z,83.88
2023-03-06T08:28:44.673Z,82.94
2023-03-06T08:31:28.897Z,80.83
2023-03-06T08:33:56.858Z,81.39
2023-03-06T08:36:24.078Z,81.16
2023-03-06T08:38:51.043Z,80.85
2023-03-06T08:41:17.554Z,80.01
2023-03-06T08:43:44.166Z,79.01
2023-03-06T08:46:11.978Z,78.04
2023-03-06T08:48:39.232Z,78.75
2023-03-06T08:51:08.259Z,78.51
2023-03-06T08:53:43.218Z,78.28
2023-03-06T08:56:22.981Z,73.48
2023-03-06T08:58:50.809Z,76.85
2023-03-06T09:01:22.529Z,76.00
2023-03-06T09:03:49.614Z,76.94
2023-03-06T09:06:16.553Z,76.66
2023-03-06T09:08:44.602Z,75.99
2023-03-06T09:11:13.213Z,77.22
2023-03-06T09:13:40.108Z,76.70
2023-03-06T09:16:08.129Z,76.69
2023-03-06T09:18:35.159Z,75.95
2023-03-06T09:21:01.995Z,74.95
2023-03-06T09:23:28.564Z,74.07
2023-03-06T09:25:56.691Z,74.59
2023-03-06T09:28:24.497Z,72.34
2023-03-06T09:30:51.932Z,72.09
2023-03-06T09:33:19.382Z,71.46
2023-03-06T09:35:52.147Z,73.91
2023-03-06T09:38:23.042Z,73.33
2023-03-06T09:40:55.921Z,72.22
2023-03-06T09:43:30.482Z,71.83
2023-03-06T09:45:59.273Z,72.74
2023-03-06T09:48:42.538Z,70.68
2023-03-06T09:51:16.576Z,70.03
2023-03-06T09:53:52.063Z,72.38
2023-03-06T09:56:22.542Z,69.64
2023-03-06T09:58:53.874Z,72.04
2023-03-06T10:01:24.363Z,71.23
2023-03-06T10:04:02.825Z,70.93
2023-03-06T10:06:33.325Z,69.83
2023-03-06T10:09:13.129Z,67.53
2023-03-06T10:11:48.894Z,67.89
2023-03-06T10:14:30.523Z,66.44
2023-03-06T10:16:58.511Z,67.28
2023-03-06T10:19:33.813Z,66.42
2023-03-06T10:22:07.495Z,64.81
2023-03-06T10:24:55.099Z,63.19
2023-03-06T10:27:27.552Z,65.38
2023-03-06T10:30:23.859Z,61.72
2023-03-06T10:32:58.607Z,67.75
2023-03-06T10:35:31.618Z,62.50
2023-03-06T10:38:17.791Z,61.20
2023-03-06T10:41:19.101Z,62.36
2023-03-06T10:44:06.433Z,59.90
2023-03-06T10:46:37.719Z,58.60
2023-03-06T10:52:20.695Z,58.82
2023-03-06T10:54:48.444Z,59.47
2023-03-06T10:57:25.942Z,60.85
2023-03-06T10:59:53.663Z,61.03
2023-03-06T11:02:28.185Z,59.79
2023-03-06T11:04:56.895Z,59.11
2023-03-06T11:07:26.444Z,59.69
2023-03-06T11:09:59.205Z,57.56
2023-03-06T11:12:30.779Z,60.79
2023-03-06T11:15:06.564Z,59.16
2023-03-06T11:17:35.048Z,58.48
2023-03-06T11:20:22.559Z,56.60
2023-03-06T11:22:55.105Z,60.54
2023-03-06T11:25:26.574Z,59.52
2023-03-06T11:27:58.525Z,52.24
2023-03-06T11:30:32.478Z,56.98
2023-03-06T11:33:03.343Z,56.04
2023-03-06T11:35:44.644Z,57.01
2023-03-06T11:38:16.885Z,55.78
2023-03-06T11:40:49.692Z,56.99
2023-03-06T11:43:25.182Z,54.29
2023-03-06T11:46:00.447Z,57.53
2023-03-06T11:48:43.627Z,55.66
2023-03-06T11:51:24.477Z,56.24
2023-03-06T11:53:51.965Z,56.53
2023-03-06T11:56:18.889Z,56.43
2023-03-06T11:58:51.108Z,56.48
2023-03-06T12:01:29.423Z,55.36
2023-03-06T12:04:17.441Z,55.95
2023-03-06T12:06:58.507Z,55.40
2023-03-06T12:09:28.540Z,56.12
2023-03-06T12:12:23.110Z,55.82
2023-03-06T12:14:58.371Z,56.61
2023-03-06T12:17:46.757Z,56.04
2023-03-06T12:20:22.535Z,56.26
2023-03-06T12:23:15.269Z,55.87
2023-03-06T12:25:47.319Z,56.32
2023-03-06T12:28:37.427Z,57.11
2023-03-06T12:31:19.651Z,55.70
2023-03-06T12:33:51.643Z,57.10
2023-03-06T12:36:46.445Z,56.54
2023-03-06T12:39:35.753Z,57.08
2023-03-06T12:42:23.007Z,57.38
2023-03-06T12:45:05.067Z,57.58
2023-03-06T12:47:38.554Z,56.75
2023-03-06T12:50:17.260Z,57.00
2023-03-06T12:52:44.486Z,57.10
2023-03-06T12:55:16.712Z,57.63
2023-03-06T12:57:43.478Z,57.71
2023-03-06T13:00:55.347Z,57.97
2023-03-06T13:03:44.924Z,57.90
2023-03-06T13:06:49.780Z,57.12
2023-03-06T13:09:51.632Z,57.58
2023-03-06T13:12:27.323Z,57.33
2023-03-06T13:15:19.938Z,58.28
2023-03-06T13:17:46.711Z,56.49
2023-03-06T13:20:13.515Z,56.60
2023-03-06T13:22:44.270Z,58.21
2023-03-06T13:25:19.694Z,56.88
2023-03-06T13:27:52.734Z,57.59
2023-03-06T13:30:37.065Z,56.08
2023-03-06T13:33:32.581Z,57.34
2023-03-06T13:36:00.450Z,57.20
2023-03-06T13:38:31.777Z,56.99
2023-03-06T13:41:23.038Z,57.15
2023-03-06T13:43:53.820Z,57.36
2023-03-06T13:46:35.695Z,55.60
2023-03-06T13:49:08.461Z,56.37
2023-03-06T13:51:49.431Z,55.36
2023-03-06T13:54:34.504Z,57.00
2023-03-06T13:57:37.908Z,57.33
2023-03-06T14:00:15.723Z,56.83
2023-03-06T14:02:58.193Z,56.94
2023-03-06T14:05:34.727Z,57.05
2023-03-06T14:08:09.579Z,56.66
2023-03-06T14:10:38.535Z,57.11
2023-03-06T14:13:15.884Z,57.27
2023-03-06T14:15:48.506Z,57.45
2023-03-06T14:18:20.610Z,57.22
2023-03-06T14:21:14.746Z,57.31
2023-03-06T14:23:43.458Z,57.07
2023-03-06T14:26:17.749Z,56.74
2023-03-06T14:28:54.389Z,57.04
2023-03-06T14:31:22.881Z,56.80
2023-03-06T14:33:55.291Z,56.38
2023-03-06T14:36:24.471Z,56.53
2023-03-06T14:38:56.984Z,56.54
2023-03-06T14:41:27.998Z,57.63
2023-03-06T14:44:21.671Z,58.64
2023-03-06T14:46:51.029Z,57.96
2023-03-06T14:49:20.234Z,57.96
2023-03-06T14:52:00.635Z,58.08
2023-03-06T14:54:33.319Z,57.75
2023-03-06T14:57:07.781Z,58.15
2023-03-06T14:59:42.881Z,58.41
2023-03-06T15:02:17.387Z,57.83
2023-03-06T15:04:48.117Z,58.22
2023-03-06T15:07:18.964Z,59.27
2023-03-06T15:09:49.711Z,58.46
2023-03-06T15:12:22.806Z,58.82
2023-03-06T15:15:28.861Z,59.21
2023-03-06T15:17:57.115Z,59.59
2023-03-06T15:20:46.055Z,58.91
2023-03-06T15:23:19.398Z,57.64
2023-03-06T15:25:58.654Z,58.09
2023-03-06T15:28:30.607Z,58.34
2023-03-06T15:31:21.156Z,58.19
2023-03-06T15:34:13.177Z,58.34
2023-03-06T15:36:49.468Z,58.34
2023-03-06T15:39:38.867Z,57.93
2023-03-06T15:42:22.147Z,57.61
2023-03-06T15:44:57.737Z,57.48
2023-03-06T15:47:24.689Z,57.04
2023-03-06T15:49:53.253Z,57.00
2023-03-06T15:52:21.408Z,56.53
2023-03-06T15:54:48.310Z,56.69
2023-03-06T15:57:26.956Z,56.97
2023-03-06T15:59:53.996Z,56.99
2023-03-06T16:02:22.868Z,57.06
2023-03-06T16:04:49.713Z,57.54
2023-03-06T16:07:16.497Z,56.98
2023-03-06T16:09:43.667Z,57.32
2023-03-06T16:12:18.196Z,58.56
2023-03-06T16:14:45.722Z,58.72
2023-03-06T16:17:12.957Z,59.67
2023-03-06T16:19:40.027Z,60.96
2023-03-06T16:22:06.783Z,61.11
2023-03-06T16:24:33.394Z,62.69
2023-03-06T16:27:02.146Z,63.51
2023-03-06T16:29:29.834Z,62.91
2023-03-06T16:31:59.025Z,63.74
2023-03-06T16:34:27.114Z,64.52
2023-03-06T16:36:53.670Z,64.75
2023-03-06T16:39:22.937Z,65.63
2023-03-06T16:41:50.542Z,65.78
2023-03-06T16:44:17.046Z,66.67
2023-03-06T16:46:47.085Z,66.21
2023-03-06T16:49:19.096Z,66.13
2023-03-06T16:51:45.827Z,66.68
2023-03-06T16:54:12.779Z,67.21
2023-03-06T16:56:39.493Z,66.90
2023-03-06T16:59:06.364Z,67.72
2023-03-06T17:01:34.340Z,67.22
2023-03-06T17:04:01.357Z,67.56
2023-03-06T17:06:28.478Z,68.62
2023-03-06T17:08:55.429Z,70.37
2023-03-06T17:11:22.018Z,68.02
2023-03-06T17:13:49.318Z,68.44
2023-03-06T17:16:16.515Z,69.27
2023-03-06T17:18:44.850Z,68.23
2023-03-06T17:21:12.574Z,68.41
2023-03-06T17:23:39.336Z,69.22
2023-03-06T17:26:13.717Z,69.61
2023-03-06T17:28:41.422Z,68.88
2023-03-06T17:31:23.055Z,69.13
2023-03-06T17:33:51.583Z,69.42
2023-03-06T17:36:19.464Z,69.08
2023-03-06T17:38:46.264Z,69.25
2023-03-06T17:41:13.870Z,69.41
2023-03-06T17:43:41.197Z,69.46
2023-03-06T17:46:10.519Z,69.79
2023-03-06T17:48:37.427Z,70.07
2023-03-06T17:51:04.889Z,70.25
2023-03-06T17:53:31.641Z,70.19
2023-03-06T17:55:58.606Z,69.97
2023-03-06T17:58:26.605Z,69.78
2023-03-06T18:00:53.235Z,69.86
2023-03-06T18:03:19.758Z,69.99
2023-03-06T18:05:46.394Z,70.08
2023-03-06T18:08:13.123Z,69.86
2023-03-06T18:10:40.984Z,70.11
2023-03-06T18:13:08.710Z,69.82
2023-03-06T18:15:38.933Z,70.12
2023-03-06T18:18:05.652Z,69.98
2023-03-06T18:20:34.486Z,70.30
2023-03-06T18:23:04.208Z,70.29
2023-03-06T18:25:32.389Z,70.18
2023-03-06T18:27:59.007Z,70.38
2023-03-06T18:30:25.830Z,70.71
2023-03-06T18:32:52.442Z,70.39
2023-03-06T18:35:19.246Z,71.04
2023-03-06T18:37:46.082Z,71.24
2023-03-06T18:40:13.622Z,71.26
2023-03-06T18:42:40.429Z,71.46
2023-03-06T18:45:07.742Z,72.03
2023-03-06T18:47:34.347Z,71.87
2023-03-06T18:50:02.972Z,71.76
2023-03-06T18:52:29.647Z,72.35
2023-03-06T18:54:56.588Z,72.36
2023-03-06T18:57:23.354Z,72.35
2023-03-06T18:59:50.116Z,72.43
2023-03-06T19:02:16.979Z,72.51
2023-03-06T19:04:43.699Z,72.82
2023-03-06T19:07:10.340Z,73.21
2023-03-06T19:09:37.069Z,73.65
2023-03-06T19:12:03.909Z,72.87
2023-03-06T19:14:30.607Z,73.12
2023-03-06T19:16:57.437Z,72.97
2023-03-06T19:19:28.956Z,72.88
2023-03-06T19:21:58.224Z,73.06
2023-03-06T19:24:25.009Z,73.54
2023-03-06T19:26:52.127Z,74.17
2023-03-06T19:29:18.633Z,74.05
2023-03-06T19:31:45.249Z,74.11
2023-03-06T19:34:11.987Z,73.94
2023-03-06T19:36:41.022Z,75.25
2023-03-06T19:39:08.142Z,74.14
2023-03-06T19:41:35.249Z,75.30
2023-03-06T19:44:03.379Z,75.54
2023-03-06T19:46:30.191Z,76.14
2023-03-06T19:48:59.586Z,75.17
2023-03-06T19:51:27.297Z,75.10
2023-03-06T19:53:54.411Z,75.05
2023-03-06T19:56:26.886Z,75.47
2023-03-06T19:58:54.048Z,75.29
2023-03-06T20:01:23.239Z,75.78
2023-03-06T20:03:52.135Z,75.90
2023-03-06T20:06:20.083Z,76.20
2023-03-06T20:08:51.190Z,76.55
2023-03-06T20:11:21.600Z,76.85
2023-03-06T20:13:56.961Z,76.65
2023-03-06T20:16:23.682Z,76.48
2023-03-06T20:18:50.997Z,76.07
2023-03-06T20:21:18.531Z,76.96
2023-03-06T20:23:45.125Z,77.41
2023-03-06T20:26:13.592Z,76.76
2023-03-06T20:28:41.869Z,76.69
2023-03-06T20:31:11.487Z,76.78
2023-03-06T20:33:38.949Z,77.42
2023-03-06T20:36:12.996Z,78.24
2023-03-06T20:38:47.374Z,78.18
2023-03-06T20:41:22.978Z,77.98
2023-03-06T20:43:50.174Z,78.83
2023-03-06T20:46:17.328Z,78.41
2023-03-06T20:48:44.172Z,78.65
2023-03-06T20:51:20.070Z,78.87
2023-03-06T20:53:49.235Z,79.60
2023-03-06T20:56:18.263Z,80.34
2023-03-06T20:58:45.047Z,78.92
2023-03-06T21:01:23.162Z,78.49
2023-03-06T21:03:50.981Z,79.26
2023-03-06T21:06:17.676Z,78.69
2023-03-06T21:08:44.630Z,78.16
2023-03-06T21:11:11.217Z,78.06
2023-03-06T21:13:38.378Z,78.46
2023-03-06T21:16:12.166Z,78.52
2023-03-06T21:18:45.701Z,78.60
2023-03-06T21:21:28.125Z,80.61
2023-03-06T21:23:58.278Z,80.02
2023-03-06T21:26:28.537Z,79.11
2023-03-06T21:29:02.815Z,80.29
2023-03-06T21:31:34.668Z,79.31
2023-03-06T21:34:04.526Z,80.25
2023-03-06T21:36:31.528Z,79.64
2023-03-06T21:38:59.071Z,79.47
2023-03-06T21:41:31.413Z,78.96
2023-03-06T21:44:05.004Z,80.74
2023-03-06T21:46:35.653Z,79.36
2023-03-06T21:49:05.415Z,79.40
2023-03-06T21:51:32.145Z,80.78
2023-03-06T21:53:59.248Z,79.47
2023-03-06T21:56:28.401Z,80.55
2023-03-06T21:59:00.124Z,78.98
2023-03-06T22:01:31.054Z,79.96
2023-03-06T22:04:01.160Z,78.28
2023-03-06T22:06:31.771Z,77.98
2023-03-06T22:09:01.910Z,79.09
2023-03-06T22:11:31.457Z,78.88
2023-03-06T22:14:02.674Z,78.49
2023-03-06T22:16:30.081Z,78.90
2023-03-06T22:18:57.563Z,78.89
2023-03-06T22:21:24.287Z,77.90
2023-03-06T22:23:53.884Z,78.63
2023-03-06T22:26:21.094Z,77.52
2023-03-06T22:28:47.768Z,78.59
2023-03-06T22:31:26.213Z,78.18
2023-03-06T22:33:57.827Z,77.96
2023-03-06T22:36:25.392Z,78.23
2023-03-06T22:38:57.280Z,79.00
2023-03-06T22:41:25.736Z,78.07
2023-03-06T22:43:57.004Z,78.49
2023-03-06T22:46:24.390Z,77.90
2023-03-06T22:48:51.367Z,77.60
2023-03-06T22:51:21.100Z,77.26
2023-03-06T22:53:48.877Z,78.22
2023-03-06T22:56:18.375Z,77.80
2023-03-06T22:58:45.047Z,77.81
2023-03-06T23:01:20.269Z,77.45
2023-03-06T23:03:49.190Z,77.63
2023-03-06T23:06:18.862Z,77.78
2023-03-06T23:08:49.767Z,77.40
2023-03-06T23:11:17.731Z,77.92
2023-03-06T23:13:44.370Z,78.74
2023-03-06T23:16:11.298Z,79.16
2023-03-06T23:18:39.244Z,78.07
2023-03-06T23:21:09.710Z,77.56
2023-03-06T23:23:37.279Z,78.57
2023-03-06T23:26:04.975Z,78.56
2023-03-06T23:28:32.251Z,77.97
2023-03-06T23:30:59.821Z,77.71
2023-03-06T23:33:26.402Z,77.89
2023-03-06T23:35:53.016Z,77.86
2023-03-06T23:38:19.653Z,78.71
2023-03-06T23:40:46.216Z,78.63
2023-03-06T23:43:12.840Z,78.48
2023-03-06T23:45:39.391Z,81.07
2023-03-06T23:48:07.975Z,78.48
2023-03-06T23:50:34.687Z,79.73
2023-03-06T23:53:01.464Z,80.71
2023-03-06T23:55:28.197Z,80.20
2023-03-06T23:57:54.962Z,79.88
